Time;durP1;ratioP1;P1;durP2;ratioP2;P2;SDS_P1;SDS_P2;PMS_P1;PMS_P2;Temp;Humidity;BMP_temperature;BMP_pressure;BME280_temperature;BME280_humidity;BME280_pressure;Samples;Min_cycle;Max_cycle;Signal;HPM_P1;HPM_P2
2023/05/24 00:00:42;;;;;;;2.65;0.90;;;;;15.10;102319.00;;;;5088701;28;20668;-76
2023/05/24 00:03:11;;;;;;;2.20;0.85;;;;;15.10;102308.00;;;;5088874;28;20576;-76
2023/05/24 00:05:39;;;;;;;4.60;1.48;;;;;15.10;102313.00;;;;5088799;28;20194;-76
2023/05/24 00:08:08;;;;;;;3.03;1.08;;;;;15.00;102305.00;;;;5089181;28;20800;-76
2023/05/24 00:10:36;;;;;;;2.88;0.90;;;;;15.00;102315.00;;;;5088737;28;20618;-76
2023/05/24 00:13:03;;;;;;;1.63;0.90;;;;;15.00;102308.00;;;;5088951;28;20205;-76
2023/05/24 00:15:30;;;;;;;3.95;1.00;;;;;15.00;102304.00;;;;5088987;28;20202;-76
2023/05/24 00:17:57;;;;;;;3.70;1.33;;;;;14.90;102300.00;;;;5089280;28;20198;-76
2023/05/24 00:20:25;;;;;;;5.63;1.70;;;;;14.90;102298.00;;;;5088886;28;20198;-76
2023/05/24 00:22:53;;;;;;;3.55;0.95;;;;;14.90;102302.00;;;;5088303;28;20747;-76
2023/05/24 00:25:22;;;;;;;3.80;1.20;;;;;14.90;102297.00;;;;5088059;28;20198;-76
2023/05/24 00:27:49;;;;;;;3.00;1.00;;;;;14.90;102300.00;;;;5087316;28;20210;-76
2023/05/24 00:30:17;;;;;;;4.22;1.30;;;;;14.80;102298.00;;;;5087460;28;20214;-77
2023/05/24 00:32:44;;;;;;;2.35;0.93;;;;;14.80;102295.00;;;;5087522;28;20225;-76
2023/05/24 00:35:12;;;;;;;4.55;1.25;;;;;14.80;102297.00;;;;5088194;28;20286;-76
2023/05/24 00:37:43;;;;;;;3.70;0.95;;;;;14.80;102289.00;;;;5087975;28;20201;-76
2023/05/24 00:40:11;;;;;;;3.80;1.08;;;;;14.70;102289.00;;;;5087117;28;20676;-76
2023/05/24 00:42:40;;;;;;;4.45;1.10;;;;;14.70;102282.00;;;;5086751;28;20286;-77
2023/05/24 00:45:08;;;;;;;8.25;1.33;;;;;14.70;102281.00;;;;5089179;28;20227;-76
2023/05/24 00:47:36;;;;;;;7.55;1.48;;;;;14.70;102276.00;;;;5087835;28;20237;-77
2023/05/24 00:50:03;;;;;;;4.10;0.98;;;;;14.60;102275.00;;;;5088101;28;20202;-76
2023/05/24 00:52:31;;;;;;;3.78;1.38;;;;;14.60;102273.00;;;;5087675;28;20199;-76
2023/05/24 00:54:59;;;;;;;6.20;1.05;;;;;14.60;102267.00;;;;5089138;28;20202;-76
2023/05/24 00:57:26;;;;;;;3.05;1.25;;;;;14.60;102270.00;;;;5088280;28;21089;-77
2023/05/24 00:59:56;;;;;;;7.30;1.55;;;;;14.50;102267.00;;;;5088477;28;20202;-76
2023/05/24 01:02:24;;;;;;;1.77;0.93;;;;;14.50;102265.00;;;;5088020;28;20205;-76
2023/05/24 01:04:51;;;;;;;4.40;1.50;;;;;14.50;102264.00;;;;5088804;28;20202;-76
2023/05/24 01:07:26;;;;;;;3.25;1.30;;;;;14.50;102269.00;;;;5086227;28;20190;-76
2023/05/24 01:10:04;;;;;;;5.43;1.40;;;;;14.40;102273.00;;;;5087859;28;20252;-76
2023/05/24 01:12:46;;;;;;;3.97;0.95;;;;;14.40;102272.00;;;;5087289;28;20220;-77
2023/05/24 01:15:22;;;;;;;4.07;1.30;;;;;14.40;102273.00;;;;5088024;28;20200;-76
2023/05/24 01:18:00;;;;;;;2.08;0.90;;;;;14.40;102276.00;;;;5088431;28;21019;-77
2023/05/24 01:20:32;;;;;;;3.28;1.50;;;;;14.30;102275.00;;;;5088797;28;20658;-77
2023/05/24 01:23:14;;;;;;;2.38;0.82;;;;;14.30;102272.00;;;;5088664;28;20201;-76
2023/05/24 01:26:06;;;;;;;2.55;1.00;;;;;14.20;102275.00;;;;5086784;28;20190;-76
2023/05/24 01:28:36;;;;;;;2.28;1.17;;;;;14.20;102273.00;;;;5087606;28;20284;-76
2023/05/24 01:31:04;;;;;;;4.07;1.40;;;;;14.20;102272.00;;;;5087496;28;20214;-76
2023/05/24 01:33:32;;;;;;;2.05;1.15;;;;;14.20;102273.00;;;;5087744;28;20578;-76
2023/05/24 01:36:00;;;;;;;3.85;1.08;;;;;14.20;102273.00;;;;5088481;28;20202;-76
2023/05/24 01:38:27;;;;;;;1.70;0.95;;;;;14.20;102260.00;;;;5089119;28;20576;-76
2023/05/24 01:41:02;;;;;;;5.25;1.13;;;;;14.10;102267.00;;;;5092282;28;20202;-76
2023/05/24 01:43:37;;;;;;;4.88;1.23;;;;;14.10;102268.00;;;;5091655;28;20721;-76
2023/05/24 01:46:11;;;;;;;4.47;1.30;;;;;14.10;102271.00;;;;5092636;28;20193;-76
2023/05/24 01:48:47;;;;;;;4.53;1.52;;;;;14.00;102275.00;;;;5091636;28;20190;-76
2023/05/24 01:51:19;;;;;;;6.20;2.00;;;;;14.00;102263.00;;;;5091237;28;20225;-77
2023/05/24 01:53:48;;;;;;;6.10;1.48;;;;;14.00;102263.00;;;;5089625;28;20193;-77
2023/05/24 01:56:18;;;;;;;3.33;0.98;;;;;14.00;102266.00;;;;5090751;28;20198;-76
2023/05/24 01:58:49;;;;;;;4.38;1.98;;;;;14.00;102269.00;;;;5090313;28;20293;-76
2023/05/24 02:01:16;;;;;;;5.50;1.27;;;;;14.00;102265.00;;;;5089811;28;20589;-76
2023/05/24 02:03:43;;;;;;;4.03;1.23;;;;;14.00;102267.00;;;;5088766;28;20194;-76
2023/05/24 02:06:11;;;;;;;3.92;1.50;;;;;13.90;102266.00;;;;5089815;28;20194;-76
2023/05/24 02:08:38;;;;;;;2.53;1.05;;;;;13.90;102268.00;;;;5090464;28;20280;-76
2023/05/24 02:11:05;;;;;;;6.15;1.02;;;;;13.90;102266.00;;;;5090891;28;20602;-76
2023/05/24 02:13:33;;;;;;;4.28;1.23;;;;;13.90;102267.00;;;;5090953;28;20217;-76
2023/05/24 02:16:03;;;;;;;4.85;1.20;;;;;13.90;102269.00;;;;5089866;28;20217;-76
2023/05/24 02:18:33;;;;;;;5.35;1.83;;;;;13.90;102266.00;;;;5091643;28;20896;-76
2023/05/24 02:21:01;;;;;;;6.60;1.23;;;;;13.90;102271.00;;;;5092234;28;20281;-76
2023/05/24 02:23:28;;;;;;;5.57;1.58;;;;;13.90;102263.00;;;;5089601;28;20538;-76
2023/05/24 02:25:56;;;;;;;9.50;1.30;;;;;13.80;102264.00;;;;5079885;28;20577;-76
2023/05/24 02:28:23;;;;;;;3.33;1.38;;;;;13.80;102263.00;;;;5091642;28;20206;-76
2023/05/24 02:30:50;;;;;;;2.30;1.10;;;;;13.80;102263.00;;;;5091220;28;20230;-76
2023/05/24 02:33:19;;;;;;;5.93;1.38;;;;;13.80;102264.00;;;;5089907;28;20228;-76
2023/05/24 02:35:47;;;;;;;3.35;1.30;;;;;13.80;102269.00;;;;5090235;28;20206;-76
2023/05/24 02:38:14;;;;;;;3.85;1.27;;;;;13.80;102267.00;;;;5089934;28;20206;-76
2023/05/24 02:40:41;;;;;;;5.18;1.40;;;;;13.80;102270.00;;;;5090180;28;20255;-76
2023/05/24 02:43:09;;;;;;;3.00;1.40;;;;;13.80;102270.00;;;;5090094;28;20205;-76
2023/05/24 02:45:36;;;;;;;5.70;1.50;;;;;13.80;102265.00;;;;5090248;28;20201;-76
2023/05/24 02:48:04;;;;;;;4.75;1.33;;;;;13.80;102261.00;;;;5089700;28;20222;-76
2023/05/24 02:50:32;;;;;;;6.03;1.50;;;;;13.80;102259.00;;;;5088957;28;20213;-76
2023/05/24 02:53:00;;;;;;;4.65;1.60;;;;;13.80;102264.00;;;;5089949;28;20194;-76
2023/05/24 02:55:27;;;;;;;6.10;1.42;;;;;13.80;102265.00;;;;5089307;28;20209;-76
2023/05/24 02:57:55;;;;;;;3.05;1.08;;;;;13.70;102268.00;;;;5087999;28;20194;-76
2023/05/24 03:00:22;;;;;;;4.65;1.77;;;;;13.70;102269.00;;;;5079284;28;20213;-76
2023/05/24 03:02:51;;;;;;;5.60;1.30;;;;;13.70;102278.00;;;;5089455;28;20199;-76
2023/05/24 03:05:18;;;;;;;3.58;1.35;;;;;13.70;102284.00;;;;5089510;28;20259;-76
2023/05/24 03:07:47;;;;;;;7.70;1.83;;;;;13.70;102276.00;;;;5089658;28;20217;-76
2023/05/24 03:10:14;;;;;;;2.67;1.30;;;;;13.70;102273.00;;;;5090061;28;20198;-76
2023/05/24 03:12:42;;;;;;;5.05;1.30;;;;;13.70;102279.00;;;;5088787;28;20229;-76
2023/05/24 03:15:10;;;;;;;3.15;1.50;;;;;13.70;102284.00;;;;5088487;28;20202;-76
2023/05/24 03:17:37;;;;;;;4.22;1.40;;;;;13.70;102271.00;;;;5088625;28;20218;-76
2023/05/24 03:20:06;;;;;;;2.70;1.35;;;;;13.70;102274.00;;;;5087362;28;20190;-76
2023/05/24 03:22:34;;;;;;;5.53;1.52;;;;;13.70;102274.00;;;;5087375;28;20210;-76
2023/05/24 03:25:02;;;;;;;5.15;1.50;;;;;13.60;102270.00;;;;5087882;28;20587;-77
2023/05/24 03:27:29;;;;;;;3.92;1.38;;;;;13.60;102265.00;;;;5086679;28;20571;-76
2023/05/24 03:29:57;;;;;;;2.60;1.60;;;;;13.60;102257.00;;;;5089259;28;20198;-76
2023/05/24 03:32:24;;;;;;;5.40;1.67;;;;;13.60;102258.00;;;;5045589;28;1104432;-76
2023/05/24 03:34:51;;;;;;;4.65;1.50;;;;;13.60;102258.00;;;;5076101;28;20202;-76
2023/05/24 03:37:19;;;;;;;3.40;1.58;;;;;13.60;102255.00;;;;5087305;28;20652;-76
2023/05/24 03:39:46;;;;;;;4.88;1.50;;;;;13.60;102255.00;;;;5089862;28;20289;-77
2023/05/24 03:42:15;;;;;;;7.35;1.60;;;;;13.60;102256.00;;;;5089158;28;20209;-76
2023/05/24 03:44:42;;;;;;;6.63;2.22;;;;;13.60;102252.00;;;;5088952;28;20197;-76
2023/05/24 03:47:10;;;;;;;3.90;1.50;;;;;13.60;102248.00;;;;5089926;28;20202;-76
2023/05/24 03:49:37;;;;;;;3.00;1.48;;;;;13.60;102259.00;;;;5090062;28;20197;-76
2023/05/24 03:52:05;;;;;;;5.65;1.50;;;;;13.60;102256.00;;;;5090146;28;20222;-76
2023/05/24 03:54:33;;;;;;;3.25;1.23;;;;;13.60;102254.00;;;;5089465;28;20194;-77
2023/05/24 03:57:01;;;;;;;2.58;1.27;;;;;13.60;102252.00;;;;5076259;28;20190;-76
2023/05/24 03:59:30;;;;;;;5.78;2.00;;;;;13.60;102246.00;;;;5078849;28;20724;-76
2023/05/24 04:01:57;;;;;;;5.65;1.67;;;;;13.60;102248.00;;;;5073445;28;20649;-76
2023/05/24 04:04:25;;;;;;;4.28;1.48;;;;;13.60;102257.00;;;;5074975;28;20198;-76
2023/05/24 04:06:52;;;;;;;2.90;1.20;;;;;13.60;102253.00;;;;5076526;28;20669;-77
2023/05/24 04:09:21;;;;;;;6.50;1.80;;;;;13.60;102242.00;;;;5075217;28;20194;-77
2023/05/24 04:11:48;;;;;;;4.57;1.20;;;;;13.60;102258.00;;;;5074999;28;20214;-76
2023/05/24 04:14:16;;;;;;;7.68;1.63;;;;;13.60;102250.00;;;;5082042;28;20191;-77
2023/05/24 04:16:44;;;;;;;4.50;1.70;;;;;13.60;102255.00;;;;5076759;28;20214;-76
2023/05/24 04:19:12;;;;;;;6.00;1.60;;;;;13.60;102260.00;;;;5077678;28;20202;-77
2023/05/24 04:21:39;;;;;;;5.18;1.58;;;;;13.60;102253.00;;;;5078766;28;20213;-77
2023/05/24 04:24:07;;;;;;;6.43;1.65;;;;;13.60;102249.00;;;;5076534;28;20209;-77
2023/05/24 04:26:36;;;;;;;6.28;1.95;;;;;13.70;102251.00;;;;5078632;28;20774;-77
2023/05/24 04:29:04;;;;;;;3.30;1.73;;;;;13.70;102245.00;;;;5078841;28;20280;-77
2023/05/24 04:31:33;;;;;;;5.25;1.65;;;;;13.70;102245.00;;;;5078724;28;20308;-77
2023/05/24 04:34:01;;;;;;;5.68;2.35;;;;;13.70;102252.00;;;;5083138;28;20664;-77
2023/05/24 04:36:30;;;;;;;4.63;1.75;;;;;13.80;102246.00;;;;5088462;28;20226;-76
2023/05/24 04:39:01;;;;;;;6.07;1.88;;;;;13.80;102250.00;;;;5089156;28;20198;-76
2023/05/24 04:41:30;;;;;;;6.30;2.25;;;;;13.80;102251.00;;;;5088953;28;20208;-76
2023/05/24 04:43:59;;;;;;;6.25;2.20;;;;;13.90;102252.00;;;;5077208;28;20194;-76
2023/05/24 04:46:27;;;;;;;3.45;1.90;;;;;13.90;102255.00;;;;5079198;28;20265;-77
2023/05/24 04:48:54;;;;;;;4.30;1.90;;;;;14.00;102261.00;;;;5076520;28;20195;-76
2023/05/24 04:51:23;;;;;;;3.42;1.50;;;;;14.00;102268.00;;;;5074713;28;20565;-76
2023/05/24 04:53:51;;;;;;;3.60;1.50;;;;;14.10;102263.00;;;;5074360;28;20199;-77
2023/05/24 04:56:18;;;;;;;6.90;2.25;;;;;14.10;102264.00;;;;5074584;28;20195;-77
2023/05/24 04:58:46;;;;;;;6.25;2.05;;;;;14.20;102261.00;;;;5079563;28;20240;-76
2023/05/24 05:01:13;;;;;;;4.32;1.90;;;;;14.30;102269.00;;;;5078944;28;20194;-77
2023/05/24 05:03:40;;;;;;;6.57;2.45;;;;;14.30;102264.00;;;;5079150;28;20195;-77
2023/05/24 05:06:08;;;;;;;4.75;2.28;;;;;14.40;102264.00;;;;5074324;28;20198;-77
2023/05/24 05:08:36;;;;;;;4.50;2.03;;;;;14.40;102260.00;;;;5081024;28;20209;-77
2023/05/24 05:11:04;;;;;;;10.02;3.10;;;;;14.60;102265.00;;;;5079052;28;20198;-77
2023/05/24 05:13:31;;;;;;;6.70;2.38;;;;;14.60;102263.00;;;;5087016;28;20218;-77
2023/05/24 05:15:58;;;;;;;6.60;2.25;;;;;14.70;102260.00;;;;5087270;28;20194;-77
2023/05/24 05:18:25;;;;;;;9.10;2.30;;;;;14.80;102266.00;;;;5085195;28;20206;-78
2023/05/24 05:20:53;;;;;;;10.55;2.50;;;;;14.90;102266.00;;;;5087134;28;20198;-77
2023/05/24 05:23:20;;;;;;;9.88;3.05;;;;;14.90;102262.00;;;;5087767;28;20198;-77
2023/05/24 05:25:49;;;;;;;7.13;3.10;;;;;15.00;102273.00;;;;5086462;28;20664;-77
2023/05/24 05:28:17;;;;;;;8.30;2.35;;;;;15.10;102269.00;;;;5083136;28;20197;-76
2023/05/24 05:30:45;;;;;;;6.15;2.58;;;;;15.20;102274.00;;;;5085498;28;20195;-77
2023/05/24 05:33:12;;;;;;;5.20;2.70;;;;;15.30;102277.00;;;;5085513;28;20245;-78
2023/05/24 05:35:40;;;;;;;5.78;2.70;;;;;15.40;102272.00;;;;5086225;28;20726;-77
2023/05/24 05:38:07;;;;;;;7.18;2.35;;;;;15.50;102275.00;;;;5085417;28;20281;-76
2023/05/24 05:40:34;;;;;;;9.65;3.08;;;;;15.60;102285.00;;;;5092312;28;20202;-77
2023/05/24 05:43:04;;;;;;;6.35;2.45;;;;;15.60;102281.00;;;;5086014;28;20281;-77
2023/05/24 05:45:31;;;;;;;7.70;2.85;;;;;15.80;102293.00;;;;5086525;28;20224;-76
2023/05/24 05:47:58;;;;;;;6.95;2.70;;;;;15.90;102291.00;;;;5086793;28;20218;-77
2023/05/24 05:50:25;;;;;;;6.90;2.42;;;;;16.00;102280.00;;;;5085650;28;20571;-76
2023/05/24 05:52:53;;;;;;;5.32;2.60;;;;;16.10;102285.00;;;;5088812;28;20222;-76
2023/05/24 05:55:20;;;;;;;11.48;3.28;;;;;16.10;102295.00;;;;5085183;28;20667;-77
2023/05/24 05:57:47;;;;;;;6.20;2.35;;;;;16.20;102291.00;;;;5077484;28;20209;-77
2023/05/24 06:00:17;;;;;;;6.85;2.65;;;;;16.30;102293.00;;;;5086008;28;20194;-77
2023/05/24 06:02:44;;;;;;;6.30;2.92;;;;;16.40;102288.00;;;;5082338;28;20672;-77
2023/05/24 06:05:12;;;;;;;5.45;2.70;;;;;16.50;102295.00;;;;5082159;28;20195;-78
2023/05/24 06:07:39;;;;;;;13.15;2.28;;;;;16.60;102292.00;;;;5086133;28;20220;-78
2023/05/24 06:10:07;;;;;;;6.55;2.10;;;;;16.60;102285.00;;;;5086308;28;20671;-77
2023/05/24 06:12:34;;;;;;;7.75;2.00;;;;;16.70;102286.00;;;;5084091;28;20226;-78
2023/05/24 06:15:03;;;;;;;4.85;1.98;;;;;16.80;102287.00;;;;5083461;28;20198;-77
2023/05/24 06:17:33;;;;;;;4.78;2.05;;;;;16.90;102290.00;;;;5084950;28;20204;-77
2023/05/24 06:20:00;;;;;;;7.80;2.35;;;;;17.00;102282.00;;;;5086724;28;20194;-77
2023/05/24 06:22:28;;;;;;;8.55;2.05;;;;;17.10;102286.00;;;;5086199;28;20660;-77
2023/05/24 06:24:55;;;;;;;8.27;2.28;;;;;17.20;102286.00;;;;5088873;28;20239;-77
2023/05/24 06:27:23;;;;;;;5.05;1.98;;;;;17.30;102288.00;;;;5089307;28;20195;-77
2023/05/24 06:29:51;;;;;;;6.80;2.03;;;;;17.40;102287.00;;;;5089179;28;20202;-78
2023/05/24 06:32:18;;;;;;;6.38;2.17;;;;;17.50;102300.00;;;;5080245;28;20284;-77
2023/05/24 06:34:47;;;;;;;6.22;2.20;;;;;17.60;102297.00;;;;5073120;28;20210;-77
2023/05/24 06:37:14;;;;;;;7.00;1.95;;;;;17.70;102305.00;;;;5089736;28;20198;-77
2023/05/24 06:39:42;;;;;;;6.78;2.33;;;;;17.70;102302.00;;;;5091485;28;20762;-77
2023/05/24 06:42:09;;;;;;;4.57;1.77;;;;;17.80;102304.00;;;;5090628;28;20687;-77
2023/05/24 06:44:36;;;;;;;5.40;1.38;;;;;17.90;102306.00;;;;5080187;28;20206;-77
2023/05/24 06:47:04;;;;;;;9.50;2.38;;;;;18.00;102305.00;;;;5072250;28;20215;-77
2023/05/24 06:49:32;;;;;;;4.80;1.77;;;;;18.00;102309.00;;;;5070909;28;20293;-77
2023/05/24 06:52:00;;;;;;;6.40;2.00;;;;;18.10;102306.00;;;;5071181;28;20210;-77
2023/05/24 06:54:27;;;;;;;4.60;1.58;;;;;18.30;102304.00;;;;5089992;28;20229;-78
2023/05/24 06:56:55;;;;;;;5.22;1.67;;;;;18.40;102303.00;;;;5085632;28;20206;-77
2023/05/24 06:59:23;;;;;;;4.55;1.90;;;;;18.50;102305.00;;;;5082596;28;20190;-78
2023/05/24 07:01:56;;;;;;;4.90;1.42;;;;;18.60;102307.00;;;;5088111;28;20198;-77
2023/05/24 07:04:23;;;;;;;4.80;1.35;;;;;18.60;102315.00;;;;5087279;28;20198;-77
2023/05/24 07:06:51;;;;;;;6.10;1.73;;;;;18.70;102313.00;;;;5089622;28;20206;-78
2023/05/24 07:09:20;;;;;;;4.10;1.70;;;;;18.70;102310.00;;;;5090298;28;20190;-78
2023/05/24 07:11:47;;;;;;;9.13;1.83;;;;;18.70;102315.00;;;;5089795;28;20206;-77
2023/05/24 07:14:15;;;;;;;3.78;1.45;;;;;18.80;102310.00;;;;5088635;28;20699;-77
2023/05/24 07:16:42;;;;;;;5.03;1.67;;;;;18.80;102312.00;;;;5085517;28;20575;-76
2023/05/24 07:19:09;;;;;;;4.53;1.98;;;;;18.90;102315.00;;;;5089804;28;20660;-77
2023/05/24 07:21:37;;;;;;;6.25;1.65;;;;;18.90;102316.00;;;;5088261;28;20996;-76
2023/05/24 07:24:05;;;;;;;5.95;2.00;;;;;18.90;102316.00;;;;5090472;28;20255;-77
2023/05/24 07:26:33;;;;;;;5.15;1.80;;;;;18.90;102315.00;;;;5085883;28;20206;-77
2023/05/24 07:29:01;;;;;;;3.78;1.30;;;;;18.90;102314.00;;;;5082206;28;20199;-77
2023/05/24 07:31:30;;;;;;;9.40;1.77;;;;;18.90;102312.00;;;;5083488;28;20218;-77
2023/05/24 07:33:57;;;;;;;4.85;1.75;;;;;18.90;102317.00;;;;5078532;28;20226;-76
2023/05/24 07:36:25;;;;;;;8.57;2.33;;;;;18.90;102315.00;;;;5076834;28;20197;-76
2023/05/24 07:38:55;;;;;;;4.88;1.83;;;;;18.90;102318.00;;;;5088675;28;20201;-77
2023/05/24 07:41:26;;;;;;;5.55;1.60;;;;;18.80;102326.00;;;;5088702;28;20251;-78
2023/05/24 07:43:55;;;;;;;3.97;1.50;;;;;18.90;102328.00;;;;5087556;28;20247;-76
2023/05/24 07:46:23;;;;;;;7.05;1.85;;;;;19.00;102318.00;;;;5075408;28;20195;-76
2023/05/24 07:48:51;;;;;;;5.93;1.73;;;;;19.00;102320.00;;;;5083358;28;20699;-76
2023/05/24 07:51:19;;;;;;;3.67;1.20;;;;;19.00;102318.00;;;;5085523;28;20202;-76
2023/05/24 07:53:46;;;;;;;6.28;1.88;;;;;19.10;102322.00;;;;5087804;28;20214;-76
2023/05/24 07:56:14;;;;;;;7.82;1.95;;;;;19.10;102321.00;;;;5088670;28;20190;-76
2023/05/24 07:58:42;;;;;;;5.72;1.70;;;;;19.20;102318.00;;;;5088047;28;20187;-76
2023/05/24 08:01:12;;;;;;;9.63;1.80;;;;;19.20;102319.00;;;;5088739;28;20224;-76
2023/05/24 08:03:39;;;;;;;3.08;1.20;;;;;19.40;102317.00;;;;5085494;28;20195;-76
2023/05/24 08:06:10;;;;;;;6.78;1.67;;;;;19.50;102313.00;;;;5086941;28;20213;-76
2023/05/24 08:08:38;;;;;;;3.97;2.08;;;;;19.60;102311.00;;;;5087910;28;20325;-76
2023/05/24 08:11:06;;;;;;;7.63;2.13;;;;;19.70;102312.00;;;;5088242;28;20195;-75
2023/05/24 08:13:34;;;;;;;5.15;1.55;;;;;19.80;102310.00;;;;5088461;28;20225;-75
2023/05/24 08:16:01;;;;;;;3.22;1.48;;;;;19.90;102317.00;;;;5090004;28;20202;-76
2023/05/24 08:18:33;;;;;;;3.95;1.17;;;;;20.00;102316.00;;;;5089421;28;20638;-76
2023/05/24 08:21:01;;;;;;;4.57;1.30;;;;;20.10;102310.00;;;;5089841;28;20199;-76
2023/05/24 08:23:32;;;;;;;5.78;1.25;;;;;20.10;102319.00;;;;5088127;28;20202;-76
2023/05/24 08:26:00;;;;;;;5.78;1.50;;;;;20.20;102311.00;;;;5090200;28;20254;-77
2023/05/24 08:28:29;;;;;;;6.57;1.65;;;;;20.30;102309.00;;;;5086765;28;20331;-78
2023/05/24 08:30:57;;;;;;;3.55;1.45;;;;;20.30;102315.00;;;;5082721;28;20233;-77
2023/05/24 08:33:24;;;;;;;2.50;1.10;;;;;20.30;102311.00;;;;5073296;28;20222;-77
2023/05/24 08:35:53;;;;;;;5.90;1.42;;;;;20.40;102296.00;;;;5089310;28;20230;-77
2023/05/24 08:38:20;;;;;;;6.05;1.55;;;;;20.50;102305.00;;;;5088356;28;20691;-77
2023/05/24 08:40:48;;;;;;;2.92;1.25;;;;;20.60;102307.00;;;;5089172;28;20198;-77
2023/05/24 08:43:19;;;;;;;2.90;1.33;;;;;20.80;102312.00;;;;5088007;28;20195;-76
2023/05/24 08:45:48;;;;;;;5.38;1.75;;;;;21.00;102304.00;;;;5079484;28;20283;-75
2023/05/24 08:48:17;;;;;;;6.65;1.25;;;;;21.20;102303.00;;;;5083840;28;20612;-78
2023/05/24 08:50:46;;;;;;;2.90;1.20;;;;;21.40;102308.00;;;;5086035;28;20731;-78
2023/05/24 08:53:16;;;;;;;6.75;1.42;;;;;21.50;102315.00;;;;5083360;28;20809;-79
2023/05/24 08:55:45;;;;;;;3.78;1.20;;;;;21.70;102306.00;;;;5086476;28;20396;-78
2023/05/24 08:58:16;;;;;;;4.45;1.55;;;;;21.90;102298.00;;;;5086872;28;20788;-79
2023/05/24 09:00:44;;;;;;;6.50;2.22;;;;;22.10;102295.00;;;;5082830;28;20247;-78
2023/05/24 09:03:13;;;;;;;5.20;1.30;;;;;22.20;102293.00;;;;5088917;28;20206;-78
2023/05/24 09:05:41;;;;;;;4.20;1.58;;;;;22.40;102298.00;;;;5085178;28;20228;-78
2023/05/24 09:08:10;;;;;;;4.65;1.30;;;;;22.50;102294.00;;;;5079615;28;20205;-76
2023/05/24 09:10:39;;;;;;;3.70;1.27;;;;;22.50;102297.00;;;;5088471;28;20206;-78
2023/05/24 09:13:07;;;;;;;7.93;1.73;;;;;22.60;102288.00;;;;5085874;28;20218;-78
2023/05/24 09:15:34;;;;;;;3.88;1.63;;;;;22.70;102296.00;;;;5082890;28;20194;-79
2023/05/24 09:18:02;;;;;;;6.35;1.02;;;;;22.70;102302.00;;;;5086318;28;20210;-78
2023/05/24 09:20:30;;;;;;;4.47;1.83;;;;;22.70;102301.00;;;;5086046;28;20194;-79
2023/05/24 09:23:01;;;;;;;5.60;1.45;;;;;22.70;102312.00;;;;5088008;28;20754;-78
2023/05/24 09:25:29;;;;;;;3.13;1.15;;;;;22.60;102310.00;;;;5084491;28;21304;-77
2023/05/24 09:28:01;;;;;;;3.47;1.48;;;;;22.60;102312.00;;;;5087841;28;20194;-77
2023/05/24 09:30:29;;;;;;;2.13;1.33;;;;;22.60;102316.00;;;;5086990;28;20213;-78
2023/05/24 09:32:57;;;;;;;14.25;2.03;;;;;22.50;102310.00;;;;5088214;28;20234;-77
2023/05/24 09:35:30;;;;;;;5.00;2.05;;;;;22.50;102307.00;;;;5088214;28;20240;-78
2023/05/24 09:37:59;;;;;;;5.40;1.23;;;;;22.40;102300.00;;;;5088645;28;20197;-77
2023/05/24 09:40:29;;;;;;;4.13;1.60;;;;;22.40;102315.00;;;;5087028;28;21079;-79
2023/05/24 09:43:10;;;;;;;4.65;1.33;;;;;22.20;102307.00;;;;5087352;28;20780;-79
2023/05/24 09:45:45;;;;;;;3.42;1.52;;;;;22.30;102300.00;;;;5088263;28;20279;-79
2023/05/24 09:48:14;;;;;;;7.15;1.42;;;;;22.40;102294.00;;;;5088136;28;20744;-79
2023/05/24 09:50:41;;;;;;;2.97;1.38;;;;;22.50;102296.00;;;;5087087;28;20225;-79
2023/05/24 09:53:09;;;;;;;6.88;2.17;;;;;22.50;102302.00;;;;5088188;28;20266;-79
2023/05/24 09:55:37;;;;;;;4.53;1.40;;;;;22.40;102303.00;;;;5087734;28;20206;-78
2023/05/24 09:58:07;;;;;;;2.67;1.33;;;;;22.40;102301.00;;;;5087759;28;20202;-77
2023/05/24 10:00:38;;;;;;;4.28;1.30;;;;;22.30;102304.00;;;;5090418;28;20205;-78
2023/05/24 10:03:07;;;;;;;5.18;1.45;;;;;22.30;102300.00;;;;5085787;28;20271;-78
2023/05/24 10:05:36;;;;;;;3.50;1.20;;;;;22.30;102311.00;;;;5090015;28;20206;-78
2023/05/24 10:08:04;;;;;;;1.88;0.88;;;;;22.20;102312.00;;;;5074939;28;20190;-78
2023/05/24 10:10:33;;;;;;;4.80;1.30;;;;;22.20;102307.00;;;;5089066;28;20210;-78
2023/05/24 10:13:02;;;;;;;5.03;1.38;;;;;22.20;102312.00;;;;5089306;28;20715;-79
2023/05/24 10:15:30;;;;;;;3.65;1.60;;;;;22.20;102311.00;;;;5088182;28;20202;-78
2023/05/24 10:18:00;;;;;;;5.00;1.60;;;;;22.10;102309.00;;;;5090071;28;20194;-77
2023/05/24 10:20:28;;;;;;;3.70;1.40;;;;;22.10;102312.00;;;;5089598;28;20194;-77
2023/05/24 10:22:59;;;;;;;5.78;1.88;;;;;22.00;102317.00;;;;5089723;28;20679;-77
2023/05/24 10:25:28;;;;;;;8.18;2.28;;;;;22.00;102312.00;;;;5091107;28;20398;-77
2023/05/24 10:27:58;;;;;;;4.82;1.70;;;;;21.90;102309.00;;;;5084508;28;20187;-78
2023/05/24 10:30:33;;;;;;;4.80;1.30;;;;;21.90;102308.00;;;;5085427;28;20217;-78
2023/05/24 10:33:04;;;;;;;4.10;1.45;;;;;21.90;102309.00;;;;5089944;28;20340;-78
2023/05/24 10:35:32;;;;;;;5.35;1.77;;;;;21.90;102313.00;;;;5087346;28;20197;-78
2023/05/24 10:38:05;;;;;;;3.95;2.20;;;;;21.90;102307.00;;;;5088282;28;20234;-77
2023/05/24 10:40:32;;;;;;;6.25;1.70;;;;;21.90;102312.00;;;;5090226;28;20289;-78
2023/05/24 10:43:03;;;;;;;2.35;1.17;;;;;21.90;102308.00;;;;5091876;28;20194;-77
2023/05/24 10:45:34;;;;;;;4.43;1.92;;;;;21.90;102303.00;;;;5090693;28;20202;-77
2023/05/24 10:48:34;;;;;;;4.78;1.40;;;;;21.80;102300.00;;;;5091476;28;20222;-77
2023/05/24 10:51:27;;;;;;;6.30;1.70;;;;;22.00;102300.00;;;;5090967;28;20221;-78
2023/05/24 10:53:58;;;;;;;8.10;2.42;;;;;21.90;102305.00;;;;5088591;28;20217;-78
2023/05/24 10:56:28;;;;;;;5.22;1.90;;;;;21.90;102303.00;;;;5090447;28;20252;-78
2023/05/24 10:59:05;;;;;;;4.47;1.50;;;;;21.90;102311.00;;;;5090361;28;20668;-78
2023/05/24 11:01:33;;;;;;;6.03;1.80;;;;;22.00;102305.00;;;;5091179;28;20194;-78
2023/05/24 11:04:15;;;;;;;4.82;1.25;;;;;21.90;102316.00;;;;5089840;28;20238;-78
2023/05/24 11:06:48;;;;;;;5.25;1.45;;;;;21.90;102308.00;;;;5086420;28;20198;-78
2023/05/24 11:09:16;;;;;;;2.95;1.33;;;;;22.00;102318.00;;;;5068981;28;21026;-78
2023/05/24 11:11:48;;;;;;;7.18;1.88;;;;;21.90;102309.00;;;;5084777;28;20690;-78
2023/05/24 11:14:21;;;;;;;7.70;1.92;;;;;21.90;102309.00;;;;5088998;28;20317;-77
2023/05/24 11:16:50;;;;;;;4.82;1.75;;;;;22.00;102312.00;;;;5091113;28;20210;-78
2023/05/24 11:19:20;;;;;;;3.63;1.35;;;;;22.00;102308.00;;;;5089020;28;20665;-78
2023/05/24 11:21:49;;;;;;;4.82;1.67;;;;;22.00;102314.00;;;;5090991;28;20303;-78
2023/05/24 11:24:17;;;;;;;5.07;2.00;;;;;22.00;102309.00;;;;5087809;28;20582;-78
2023/05/24 11:26:45;;;;;;;2.67;1.15;;;;;22.10;102303.00;;;;5088306;28;20186;-78
2023/05/24 11:29:16;;;;;;;6.22;1.45;;;;;22.10;102306.00;;;;5087712;28;20225;-78
2023/05/24 11:31:48;;;;;;;3.90;1.48;;;;;22.00;102311.00;;;;5090113;28;20228;-78
2023/05/24 11:34:16;;;;;;;5.30;1.38;;;;;22.10;102308.00;;;;5090117;28;20210;-78
2023/05/24 11:36:46;;;;;;;5.90;1.25;;;;;22.10;102303.00;;;;5076341;28;20274;-78
2023/05/24 11:39:14;;;;;;;5.22;1.60;;;;;22.10;102305.00;;;;5088491;28;20251;-78
2023/05/24 11:41:42;;;;;;;4.95;1.20;;;;;22.10;102303.00;;;;5089049;28;20194;-78
2023/05/24 11:44:11;;;;;;;2.65;1.20;;;;;22.20;102301.00;;;;5084986;28;20218;-78
2023/05/24 11:46:40;;;;;;;3.72;1.58;;;;;22.20;102299.00;;;;5088643;28;20198;-78
2023/05/24 11:49:11;;;;;;;4.47;1.25;;;;;22.20;102306.00;;;;5087321;28;20271;-78
2023/05/24 11:51:40;;;;;;;4.90;1.50;;;;;22.20;102299.00;;;;5090065;28;20186;-79
2023/05/24 11:54:08;;;;;;;3.33;1.38;;;;;22.20;102298.00;;;;5089611;28;20225;-78
2023/05/24 11:56:36;;;;;;;3.80;1.33;;;;;22.20;102301.00;;;;5090216;28;20557;-78
2023/05/24 11:59:14;;;;;;;4.07;1.33;;;;;22.20;102296.00;;;;5090148;28;20198;-78
2023/05/24 12:01:41;;;;;;;2.60;1.40;;;;;22.30;102300.00;;;;5089512;28;20577;-78
2023/05/24 12:04:09;;;;;;;8.02;1.85;;;;;22.30;102306.00;;;;5088258;28;20202;-78
2023/05/24 12:06:38;;;;;;;3.88;1.85;;;;;22.40;102290.00;;;;5089861;28;20198;-78
2023/05/24 12:09:09;;;;;;;2.50;1.10;;;;;22.40;102289.00;;;;5083190;28;20199;-79
2023/05/24 12:11:39;;;;;;;2.45;1.58;;;;;22.40;102294.00;;;;5085884;28;20202;-79
2023/05/24 12:14:07;;;;;;;3.58;1.30;;;;;22.50;102294.00;;;;5085473;28;20272;-81
2023/05/24 12:16:36;;;;;;;3.85;1.30;;;;;22.50;102301.00;;;;5074784;28;20236;-79